KLM49F EHAM-EDDH
Flight info
| Callsign | KLM49F |
|---|---|
| Flight time | N/A |
| Altitude | 35000 |
| Route | ANDIK N873 GRONY DCT RIBSO RIBSO3P |
| Aircraft | B738/M-SDE2E3FGHIRWXY/LB1 |
Departure
| Time | N/A |
|---|---|
| Airport | Amsterdam Airport Schiphol (EHAM) |
Arrival
| Time | 2026-04-24 19:27 |
|---|---|
| Airport | Hamburg Helmut Schmidt Airport (EDDH) |
| Time | Latitude | Longitude | Altitude | Speed | Heading |
|---|---|---|---|---|---|
| 2026-04-24 18:54 | 53.20132 | 6.47276 | 32422 ft | 467 kts | 68° |
| 2026-04-24 18:55 | 53.22045 | 6.55662 | 33219 ft | 464 kts | 68° |
| 2026-04-24 18:55 | 53.23583 | 6.62412 | 33317 ft | 475 kts | 68° |
| 2026-04-24 18:56 | 53.25953 | 6.72867 | 33711 ft | 483 kts | 68° |
| 2026-04-24 18:56 | 53.27129 | 6.78085 | 34259 ft | 478 kts | 68° |
| 2026-04-24 18:56 | 53.28297 | 6.83282 | 34599 ft | 478 kts | 68° |
| 2026-04-24 18:56 | 53.29466 | 6.88491 | 34825 ft | 480 kts | 68° |
| 2026-04-24 18:57 | 53.30255 | 6.92017 | 34994 ft | 480 kts | 68° |
| 2026-04-24 18:57 | 53.31424 | 6.97251 | 35225 ft | 480 kts | 68° |
| 2026-04-24 18:57 | 53.32596 | 7.02507 | 35227 ft | 483 kts | 68° |
| 2026-04-24 18:57 | 53.33750 | 7.07701 | 35216 ft | 469 kts | 68° |
| 2026-04-24 18:58 | 53.34865 | 7.12738 | 35226 ft | 459 kts | 68° |
| 2026-04-24 18:58 | 53.37027 | 7.22538 | 35215 ft | 435 kts | 68° |
| 2026-04-24 18:58 | 53.38056 | 7.27215 | 35217 ft | 422 kts | 68° |
| 2026-04-24 18:59 | 53.39055 | 7.31767 | 35214 ft | 410 kts | 68° |
| 2026-04-24 18:59 | 53.40976 | 7.40533 | 35249 ft | 406 kts | 68° |
| 2026-04-24 19:00 | 53.42964 | 7.49625 | 35202 ft | 416 kts | 68° |
| 2026-04-24 19:00 | 53.43937 | 7.54099 | 34835 ft | 412 kts | 68° |
| 2026-04-24 19:00 | 53.44913 | 7.58603 | 34348 ft | 409 kts | 68° |
| 2026-04-24 19:00 | 53.45885 | 7.63096 | 33539 ft | 414 kts | 68° |
| 2026-04-24 19:01 | 53.46893 | 7.67752 | 32235 ft | 436 kts | 68° |
| 2026-04-24 19:01 | 53.47956 | 7.72674 | 30936 ft | 458 kts | 68° |
| 2026-04-24 19:01 | 53.49044 | 7.77731 | 30299 ft | 460 kts | 68° |
| 2026-04-24 19:01 | 53.50119 | 7.82758 | 29915 ft | 453 kts | 69° |
| 2026-04-24 19:02 | 53.51174 | 7.87708 | 29511 ft | 447 kts | 69° |
| 2026-04-24 19:02 | 53.52215 | 7.92597 | 29053 ft | 442 kts | 69° |
| 2026-04-24 19:02 | 53.53239 | 7.97418 | 28514 ft | 434 kts | 69° |
| 2026-04-24 19:02 | 53.54244 | 8.02157 | 27781 ft | 428 kts | 69° |
| 2026-04-24 19:03 | 53.55240 | 8.06857 | 26965 ft | 425 kts | 69° |
| 2026-04-24 19:03 | 53.56226 | 8.11520 | 26223 ft | 421 kts | 69° |
| 2026-04-24 19:03 | 53.57198 | 8.16134 | 25530 ft | 416 kts | 69° |
| 2026-04-24 19:03 | 53.58156 | 8.20688 | 24876 ft | 410 kts | 69° |
| 2026-04-24 19:04 | 53.59101 | 8.25189 | 24216 ft | 406 kts | 69° |
| 2026-04-24 19:04 | 53.60038 | 8.29665 | 23553 ft | 403 kts | 69° |
| 2026-04-24 19:04 | 53.60962 | 8.34087 | 22896 ft | 398 kts | 69° |
| 2026-04-24 19:04 | 53.61873 | 8.38455 | 22276 ft | 393 kts | 69° |
| 2026-04-24 19:05 | 53.62770 | 8.42769 | 21649 ft | 388 kts | 69° |
| 2026-04-24 19:05 | 53.63655 | 8.47033 | 21023 ft | 384 kts | 69° |
| 2026-04-24 19:05 | 53.64529 | 8.51256 | 20410 ft | 380 kts | 69° |
| 2026-04-24 19:05 | 53.65393 | 8.55436 | 19821 ft | 375 kts | 69° |
| 2026-04-24 19:06 | 53.66246 | 8.59567 | 19243 ft | 371 kts | 69° |
| 2026-04-24 19:06 | 53.67087 | 8.63655 | 18691 ft | 367 kts | 68° |
| 2026-04-24 19:06 | 53.67920 | 8.67708 | 18075 ft | 364 kts | 68° |
| 2026-04-24 19:06 | 53.68741 | 8.71714 | 17475 ft | 359 kts | 68° |
| 2026-04-24 19:07 | 53.69546 | 8.75654 | 17025 ft | 351 kts | 68° |
| 2026-04-24 19:07 | 53.70334 | 8.79514 | 16620 ft | 345 kts | 68° |
| 2026-04-24 19:07 | 53.71108 | 8.83315 | 16242 ft | 340 kts | 68° |
| 2026-04-24 19:07 | 53.71876 | 8.87086 | 15873 ft | 342 kts | 68° |
| 2026-04-24 19:08 | 53.72659 | 8.90930 | 15521 ft | 348 kts | 68° |
| 2026-04-24 19:08 | 53.73436 | 8.94762 | 15129 ft | 341 kts | 68° |
| 2026-04-24 19:08 | 53.74194 | 8.98519 | 14751 ft | 336 kts | 68° |
| 2026-04-24 19:08 | 53.74944 | 9.02236 | 14387 ft | 333 kts | 68° |
| 2026-04-24 19:09 | 53.75701 | 9.05988 | 14036 ft | 342 kts | 68° |
| 2026-04-24 19:09 | 53.76472 | 9.09812 | 13618 ft | 345 kts | 68° |
| 2026-04-24 19:09 | 53.77239 | 9.13637 | 13206 ft | 342 kts | 67° |
| 2026-04-24 19:09 | 53.77998 | 9.17430 | 12810 ft | 339 kts | 67° |
| 2026-04-24 19:10 | 53.78750 | 9.21194 | 12432 ft | 336 kts | 67° |
| 2026-04-24 19:10 | 53.79495 | 9.24923 | 12057 ft | 334 kts | 67° |
| 2026-04-24 19:10 | 53.80232 | 9.28625 | 11683 ft | 331 kts | 67° |
| 2026-04-24 19:10 | 53.80963 | 9.32305 | 11305 ft | 329 kts | 66° |
| 2026-04-24 19:11 | 53.81622 | 9.35984 | 11057 ft | 325 kts | 71° |
| 2026-04-24 19:11 | 53.82100 | 9.39706 | 10887 ft | 323 kts | 74° |
| 2026-04-24 19:11 | 53.82519 | 9.43405 | 10712 ft | 321 kts | 75° |
| 2026-04-24 19:11 | 53.82934 | 9.47108 | 10538 ft | 318 kts | 74° |
| 2026-04-24 19:12 | 53.83346 | 9.50734 | 10360 ft | 310 kts | 74° |
| 2026-04-24 19:12 | 53.83756 | 9.54274 | 10193 ft | 303 kts | 73° |
| 2026-04-24 19:12 | 53.84162 | 9.57729 | 10025 ft | 295 kts | 73° |
| 2026-04-24 19:12 | 53.84561 | 9.61098 | 9862 ft | 289 kts | 73° |
| 2026-04-24 19:13 | 53.84822 | 9.63289 | 9749 ft | 285 kts | 73° |
| 2026-04-24 19:13 | 53.85351 | 9.67710 | 9341 ft | 288 kts | 73° |
| 2026-04-24 19:13 | 53.85746 | 9.71024 | 9034 ft | 287 kts | 73° |
| 2026-04-24 19:13 | 53.86136 | 9.74328 | 8744 ft | 285 kts | 73° |
| 2026-04-24 19:14 | 53.86522 | 9.77607 | 8493 ft | 282 kts | 73° |
| 2026-04-24 19:14 | 53.86750 | 9.80899 | 8223 ft | 285 kts | 88° |
| 2026-04-24 19:14 | 53.86541 | 9.84248 | 7995 ft | 287 kts | 93° |
| 2026-04-24 19:14 | 53.86276 | 9.87606 | 7752 ft | 288 kts | 94° |
| 2026-04-24 19:15 | 53.86011 | 9.90957 | 7508 ft | 287 kts | 93° |
| 2026-04-24 19:15 | 53.85755 | 9.94310 | 7260 ft | 286 kts | 93° |
| 2026-04-24 19:15 | 53.85506 | 9.97648 | 7020 ft | 285 kts | 93° |
| 2026-04-24 19:15 | 53.85264 | 10.00971 | 6781 ft | 284 kts | 93° |
| 2026-04-24 19:16 | 53.84788 | 10.07565 | 6270 ft | 276 kts | 93° |
| 2026-04-24 19:16 | 53.84557 | 10.10739 | 6001 ft | 267 kts | 92° |
| 2026-04-24 19:16 | 53.84333 | 10.13813 | 5733 ft | 259 kts | 92° |
| 2026-04-24 19:17 | 53.84118 | 10.16816 | 5475 ft | 255 kts | 90° |
| 2026-04-24 19:17 | 53.84356 | 10.19688 | 5203 ft | 242 kts | 60° |
| 2026-04-24 19:17 | 53.85226 | 10.22034 | 5051 ft | 232 kts | 45° |
| 2026-04-24 19:17 | 53.86262 | 10.24127 | 5004 ft | 232 kts | 43° |
| 2026-04-24 19:18 | 53.87319 | 10.26214 | 4968 ft | 233 kts | 43° |
| 2026-04-24 19:18 | 53.88368 | 10.28296 | 4951 ft | 232 kts | 43° |
| 2026-04-24 19:18 | 53.89409 | 10.30376 | 4948 ft | 231 kts | 44° |
| 2026-04-24 19:18 | 53.90473 | 10.32399 | 4955 ft | 231 kts | 46° |
| 2026-04-24 19:19 | 53.91149 | 10.34926 | 4967 ft | 241 kts | 70° |
| 2026-04-24 19:19 | 53.91216 | 10.37811 | 4941 ft | 253 kts | 99° |
| 2026-04-24 19:19 | 53.90421 | 10.40482 | 4947 ft | 260 kts | 130° |
| 2026-04-24 19:19 | 53.88943 | 10.42205 | 4952 ft | 261 kts | 162° |
| 2026-04-24 19:20 | 53.87170 | 10.42509 | 4948 ft | 255 kts | 194° |
| 2026-04-24 19:20 | 53.85441 | 10.41710 | 4734 ft | 261 kts | 203° |
| 2026-04-24 19:20 | 53.83787 | 10.40559 | 4449 ft | 251 kts | 221° |
| 2026-04-24 19:20 | 53.82640 | 10.38518 | 4206 ft | 233 kts | 238° |
| 2026-04-24 19:21 | 53.81637 | 10.36414 | 4001 ft | 225 kts | 237° |
| 2026-04-24 19:21 | 53.80675 | 10.34469 | 3955 ft | 214 kts | 237° |
| 2026-04-24 19:21 | 53.79734 | 10.32574 | 3972 ft | 210 kts | 237° |
| 2026-04-24 19:21 | 53.78787 | 10.30658 | 3973 ft | 215 kts | 237° |
| 2026-04-24 19:22 | 53.78133 | 10.29336 | 3986 ft | 218 kts | 237° |
| 2026-04-24 19:22 | 53.76846 | 10.26744 | 3993 ft | 215 kts | 237° |
| 2026-04-24 19:22 | 53.75880 | 10.24798 | 3885 ft | 217 kts | 237° |
| 2026-04-24 19:22 | 53.74900 | 10.22816 | 3605 ft | 220 kts | 236° |
| 2026-04-24 19:23 | 53.73934 | 10.20875 | 3332 ft | 210 kts | 237° |
| 2026-04-24 19:23 | 53.73022 | 10.19037 | 3041 ft | 199 kts | 237° |
| 2026-04-24 19:23 | 53.72153 | 10.17281 | 2782 ft | 190 kts | 237° |
| 2026-04-24 19:23 | 53.71309 | 10.15574 | 2536 ft | 184 kts | 237° |
| 2026-04-24 19:24 | 53.70507 | 10.13950 | 2279 ft | 180 kts | 237° |
| 2026-04-24 19:24 | 53.69728 | 10.12376 | 2052 ft | 171 kts | 237° |
| 2026-04-24 19:24 | 53.68991 | 10.10887 | 1826 ft | 161 kts | 237° |
| 2026-04-24 19:24 | 53.68291 | 10.09470 | 1585 ft | 152 kts | 237° |
| 2026-04-24 19:25 | 53.67634 | 10.08138 | 1406 ft | 147 kts | 238° |
| 2026-04-24 19:25 | 53.66982 | 10.06816 | 1190 ft | 145 kts | 237° |
| 2026-04-24 19:25 | 53.66349 | 10.05536 | 963 ft | 139 kts | 237° |
| 2026-04-24 19:25 | 53.65742 | 10.04305 | 758 ft | 136 kts | 237° |
| 2026-04-24 19:26 | 53.65135 | 10.03070 | 589 ft | 135 kts | 235° |
| 2026-04-24 19:26 | 53.64538 | 10.01853 | 378 ft | 135 kts | 236° |
| 2026-04-24 19:26 | 53.63942 | 10.00658 | 216 ft | 132 kts | 235° |
| 2026-04-24 19:26 | 53.63358 | 9.99467 | 52 ft | 127 kts | 234° |
| 2026-04-24 19:27 | 53.62872 | 9.98488 | 49 ft | 87 kts | 231° |
| 2026-04-24 19:27 | 53.62606 | 9.97950 | 47 ft | 44 kts | 230° |
| 2026-04-24 19:27 | 53.62470 | 9.97802 | 45 ft | 15 kts | 160° |
| 2026-04-24 19:27 | 53.62430 | 9.97915 | 49 ft | 9 kts | 85° |
| 2026-04-24 19:28 | 53.62433 | 9.97952 | 49 ft | 0 kts | 81° |
| 2026-04-24 19:29 | 53.62449 | 9.98037 | 63 ft | 13 kts | 66° |
| 2026-04-24 19:29 | 53.62525 | 9.98215 | 49 ft | 23 kts | 50° |
| 2026-04-24 19:29 | 53.62627 | 9.98427 | 50 ft | 23 kts | 50° |
| 2026-04-24 19:30 | 53.62728 | 9.98629 | 50 ft | 22 kts | 51° |
| 2026-04-24 19:30 | 53.62826 | 9.98826 | 49 ft | 22 kts | 49° |
| 2026-04-24 19:30 | 53.62920 | 9.99018 | 49 ft | 21 kts | 51° |
| 2026-04-24 19:30 | 53.63010 | 9.99200 | 49 ft | 18 kts | 50° |
| 2026-04-24 19:31 | 53.63079 | 9.99355 | 49 ft | 9 kts | 55° |
| 2026-04-24 19:31 | 53.63081 | 9.99358 | 49 ft | 0 kts | 55° |
| 2026-04-24 19:32 | 53.63081 | 9.99359 | 49 ft | 1 kts | 55° |
| 2026-04-24 19:32 | 53.63099 | 9.99402 | 49 ft | 10 kts | 56° |
| 2026-04-24 19:32 | 53.63163 | 9.99550 | 48 ft | 19 kts | 51° |
| 2026-04-24 19:32 | 53.63217 | 9.99660 | 49 ft | 0 kts | 48° |
| 2026-04-24 19:33 | 53.63245 | 9.99708 | 49 ft | 13 kts | 45° |
| 2026-04-24 19:33 | 53.63337 | 9.99883 | 49 ft | 24 kts | 50° |
| 2026-04-24 19:34 | 53.63418 | 10.00045 | 50 ft | 0 kts | 49° |
| 2026-04-24 19:34 | 53.63429 | 10.00087 | 50 ft | 11 kts | 80° |
| 2026-04-24 19:34 | 53.63398 | 10.00199 | 50 ft | 10 kts | 128° |
| 2026-04-24 19:34 | 53.63333 | 10.00232 | 50 ft | 10 kts | 176° |
| 2026-04-24 19:35 | 53.63263 | 10.00241 | 50 ft | 11 kts | 175° |
| 2026-04-24 19:35 | 53.63174 | 10.00252 | 50 ft | 15 kts | 175° |
| 2026-04-24 19:35 | 53.63096 | 10.00264 | 46 ft | 3 kts | 163° |
| 2026-04-24 19:35 | 53.63084 | 10.00296 | 50 ft | 4 kts | 116° |
| 2026-04-24 19:36 | 53.63077 | 10.00354 | 50 ft | 4 kts | 99° |
| 2026-04-24 19:36 | 53.63075 | 10.00370 | 50 ft | 0 kts | 99° |